sensor_id;sensor_type;location;lat;lon;timestamp;P1;durP1;ratioP1;P2;durP2;ratioP2
773;SDS011;370;48.810;9.150;2023-03-16T00:01:52;5.97;;;2.03;;
773;SDS011;370;48.810;9.150;2023-03-16T00:04:19;3.90;;;2.13;;
773;SDS011;370;48.810;9.150;2023-03-16T00:06:45;1.05;;;1.05;;
773;SDS011;370;48.810;9.150;2023-03-16T00:09:12;2.60;;;1.75;;
773;SDS011;370;48.810;9.150;2023-03-16T00:11:39;4.00;;;2.60;;
773;SDS011;370;48.810;9.150;2023-03-16T00:14:07;2.80;;;1.38;;
773;SDS011;370;48.810;9.150;2023-03-16T00:16:33;3.45;;;2.60;;
773;SDS011;370;48.810;9.150;2023-03-16T00:19:00;4.47;;;2.22;;
773;SDS011;370;48.810;9.150;2023-03-16T00:21:29;3.17;;;1.83;;
773;SDS011;370;48.810;9.150;2023-03-16T00:23:59;8.02;;;1.55;;
773;SDS011;370;48.810;9.150;2023-03-16T00:26:27;1.67;;;1.10;;
773;SDS011;370;48.810;9.150;2023-03-16T00:28:54;4.30;;;1.35;;
773;SDS011;370;48.810;9.150;2023-03-16T00:31:22;4.75;;;2.47;;
773;SDS011;370;48.810;9.150;2023-03-16T00:33:49;4.15;;;2.33;;
773;SDS011;370;48.810;9.150;2023-03-16T00:36:16;11.95;;;3.03;;
773;SDS011;370;48.810;9.150;2023-03-16T00:38:43;3.10;;;1.70;;
773;SDS011;370;48.810;9.150;2023-03-16T00:41:11;9.57;;;3.38;;
773;SDS011;370;48.810;9.150;2023-03-16T00:43:39;17.42;;;3.08;;
773;SDS011;370;48.810;9.150;2023-03-16T00:46:10;8.05;;;3.13;;
773;SDS011;370;48.810;9.150;2023-03-16T00:48:40;2.97;;;2.13;;
773;SDS011;370;48.810;9.150;2023-03-16T00:51:10;3.65;;;2.15;;
773;SDS011;370;48.810;9.150;2023-03-16T00:53:39;3.50;;;1.52;;
773;SDS011;370;48.810;9.150;2023-03-16T00:56:06;4.03;;;1.60;;
773;SDS011;370;48.810;9.150;2023-03-16T00:58:35;2.58;;;1.98;;
773;SDS011;370;48.810;9.150;2023-03-16T01:01:03;2.53;;;1.42;;
773;SDS011;370;48.810;9.150;2023-03-16T01:03:32;2.50;;;1.40;;
773;SDS011;370;48.810;9.150;2023-03-16T01:06:03;3.38;;;2.28;;
773;SDS011;370;48.810;9.150;2023-03-16T01:08:30;3.25;;;1.73;;
773;SDS011;370;48.810;9.150;2023-03-16T01:11:00;1.40;;;1.33;;
773;SDS011;370;48.810;9.150;2023-03-16T01:13:28;2.90;;;1.45;;
773;SDS011;370;48.810;9.150;2023-03-16T01:15:56;1.67;;;1.23;;
773;SDS011;370;48.810;9.150;2023-03-16T01:18:23;1.98;;;1.30;;
773;SDS011;370;48.810;9.150;2023-03-16T01:20:50;4.90;;;3.00;;
773;SDS011;370;48.810;9.150;2023-03-16T01:23:19;2.55;;;1.73;;
773;SDS011;370;48.810;9.150;2023-03-16T01:25:46;3.92;;;2.60;;
773;SDS011;370;48.810;9.150;2023-03-16T01:28:17;1.77;;;1.38;;
773;SDS011;370;48.810;9.150;2023-03-16T01:30:45;5.20;;;2.47;;
773;SDS011;370;48.810;9.150;2023-03-16T01:33:12;2.58;;;1.65;;
773;SDS011;370;48.810;9.150;2023-03-16T01:35:38;4.90;;;1.90;;
773;SDS011;370;48.810;9.150;2023-03-16T01:38:05;4.07;;;1.83;;
773;SDS011;370;48.810;9.150;2023-03-16T01:40:33;4.40;;;2.42;;
773;SDS011;370;48.810;9.150;2023-03-16T01:43:02;4.53;;;2.42;;
773;SDS011;370;48.810;9.150;2023-03-16T01:48:39;5.13;;;2.45;;
773;SDS011;370;48.810;9.150;2023-03-16T01:51:09;4.68;;;2.88;;
773;SDS011;370;48.810;9.150;2023-03-16T01:53:40;3.80;;;2.50;;
773;SDS011;370;48.810;9.150;2023-03-16T01:56:11;2.53;;;2.42;;
773;SDS011;370;48.810;9.150;2023-03-16T01:58:42;2.67;;;1.83;;
773;SDS011;370;48.810;9.150;2023-03-16T02:01:10;3.40;;;3.20;;
773;SDS011;370;48.810;9.150;2023-03-16T02:03:38;7.68;;;2.80;;
773;SDS011;370;48.810;9.150;2023-03-16T02:06:08;1.13;;;1.00;;
773;SDS011;370;48.810;9.150;2023-03-16T02:08:38;2.83;;;1.48;;
773;SDS011;370;48.810;9.150;2023-03-16T02:11:08;9.43;;;2.28;;
773;SDS011;370;48.810;9.150;2023-03-16T02:13:36;8.00;;;2.60;;
773;SDS011;370;48.810;9.150;2023-03-16T02:16:04;2.90;;;1.55;;
773;SDS011;370;48.810;9.150;2023-03-16T02:18:32;6.63;;;2.40;;
773;SDS011;370;48.810;9.150;2023-03-16T02:21:01;1.65;;;1.50;;
773;SDS011;370;48.810;9.150;2023-03-16T02:23:33;6.03;;;1.90;;
773;SDS011;370;48.810;9.150;2023-03-16T02:26:00;1.30;;;1.15;;
773;SDS011;370;48.810;9.150;2023-03-16T02:28:34;3.60;;;1.63;;
773;SDS011;370;48.810;9.150;2023-03-16T02:31:13;6.95;;;1.60;;
773;SDS011;370;48.810;9.150;2023-03-16T02:33:41;2.85;;;1.70;;
773;SDS011;370;48.810;9.150;2023-03-16T02:36:09;3.42;;;1.65;;
773;SDS011;370;48.810;9.150;2023-03-16T02:38:38;1.90;;;1.55;;
773;SDS011;370;48.810;9.150;2023-03-16T02:41:08;3.42;;;1.73;;
773;SDS011;370;48.810;9.150;2023-03-16T02:43:39;1.33;;;1.27;;
773;SDS011;370;48.810;9.150;2023-03-16T02:46:09;7.03;;;2.33;;
773;SDS011;370;48.810;9.150;2023-03-16T02:48:40;4.45;;;2.20;;
773;SDS011;370;48.810;9.150;2023-03-16T02:51:10;5.13;;;2.22;;
773;SDS011;370;48.810;9.150;2023-03-16T02:53:37;5.13;;;2.05;;
773;SDS011;370;48.810;9.150;2023-03-16T02:56:05;1.55;;;1.45;;
773;SDS011;370;48.810;9.150;2023-03-16T02:58:32;3.15;;;1.95;;
773;SDS011;370;48.810;9.150;2023-03-16T03:00:58;2.47;;;1.80;;
773;SDS011;370;48.810;9.150;2023-03-16T03:03:25;1.88;;;1.60;;
773;SDS011;370;48.810;9.150;2023-03-16T03:05:54;2.42;;;2.05;;
773;SDS011;370;48.810;9.150;2023-03-16T03:08:20;7.05;;;1.30;;
773;SDS011;370;48.810;9.150;2023-03-16T03:10:47;4.32;;;2.50;;
773;SDS011;370;48.810;9.150;2023-03-16T03:13:14;10.88;;;2.25;;
773;SDS011;370;48.810;9.150;2023-03-16T03:15:40;3.33;;;2.03;;
773;SDS011;370;48.810;9.150;2023-03-16T03:18:07;1.10;;;1.05;;
773;SDS011;370;48.810;9.150;2023-03-16T03:20:34;1.00;;;0.90;;
773;SDS011;370;48.810;9.150;2023-03-16T03:23:02;22.60;;;2.58;;
773;SDS011;370;48.810;9.150;2023-03-16T03:25:29;4.90;;;1.98;;
773;SDS011;370;48.810;9.150;2023-03-16T03:27:59;4.88;;;1.75;;
773;SDS011;370;48.810;9.150;2023-03-16T03:30:27;4.53;;;3.45;;
773;SDS011;370;48.810;9.150;2023-03-16T03:32:54;7.00;;;2.65;;
773;SDS011;370;48.810;9.150;2023-03-16T03:35:20;4.93;;;2.38;;
773;SDS011;370;48.810;9.150;2023-03-16T03:37:47;3.08;;;2.88;;
773;SDS011;370;48.810;9.150;2023-03-16T03:40:16;3.17;;;2.25;;
773;SDS011;370;48.810;9.150;2023-03-16T03:42:44;5.13;;;2.80;;
773;SDS011;370;48.810;9.150;2023-03-16T03:45:11;5.35;;;1.73;;
773;SDS011;370;48.810;9.150;2023-03-16T03:47:39;2.20;;;2.10;;
773;SDS011;370;48.810;9.150;2023-03-16T03:50:06;3.40;;;2.50;;
773;SDS011;370;48.810;9.150;2023-03-16T03:52:34;3.03;;;1.55;;
773;SDS011;370;48.810;9.150;2023-03-16T03:55:01;5.88;;;3.17;;
773;SDS011;370;48.810;9.150;2023-03-16T03:57:29;2.53;;;1.40;;
773;SDS011;370;48.810;9.150;2023-03-16T03:59:56;3.08;;;1.83;;
773;SDS011;370;48.810;9.150;2023-03-16T04:02:22;3.97;;;1.27;;
773;SDS011;370;48.810;9.150;2023-03-16T04:04:49;1.98;;;1.67;;
773;SDS011;370;48.810;9.150;2023-03-16T04:07:16;4.68;;;2.47;;
773;SDS011;370;48.810;9.150;2023-03-16T04:09:43;3.03;;;2.25;;
773;SDS011;370;48.810;9.150;2023-03-16T04:12:10;9.02;;;3.05;;
773;SDS011;370;48.810;9.150;2023-03-16T04:14:38;2.15;;;1.83;;
773;SDS011;370;48.810;9.150;2023-03-16T04:17:05;4.82;;;2.42;;
773;SDS011;370;48.810;9.150;2023-03-16T04:19:32;6.40;;;3.35;;
773;SDS011;370;48.810;9.150;2023-03-16T04:21:58;5.05;;;2.40;;
773;SDS011;370;48.810;9.150;2023-03-16T04:24:25;6.63;;;2.75;;
773;SDS011;370;48.810;9.150;2023-03-16T04:26:52;2.13;;;1.58;;
773;SDS011;370;48.810;9.150;2023-03-16T04:29:19;2.80;;;2.08;;
773;SDS011;370;48.810;9.150;2023-03-16T04:31:47;5.63;;;1.83;;
773;SDS011;370;48.810;9.150;2023-03-16T04:34:15;4.75;;;2.92;;
773;SDS011;370;48.810;9.150;2023-03-16T04:36:41;10.73;;;3.85;;
773;SDS011;370;48.810;9.150;2023-03-16T04:39:08;1.83;;;1.55;;
773;SDS011;370;48.810;9.150;2023-03-16T04:41:35;1.67;;;1.48;;
773;SDS011;370;48.810;9.150;2023-03-16T04:44:02;9.38;;;4.35;;
773;SDS011;370;48.810;9.150;2023-03-16T04:46:29;3.47;;;2.42;;
773;SDS011;370;48.810;9.150;2023-03-16T04:48:57;6.95;;;3.28;;
773;SDS011;370;48.810;9.150;2023-03-16T04:51:24;4.43;;;1.40;;
773;SDS011;370;48.810;9.150;2023-03-16T04:53:51;2.25;;;2.08;;
773;SDS011;370;48.810;9.150;2023-03-16T04:56:17;3.95;;;2.20;;
773;SDS011;370;48.810;9.150;2023-03-16T04:58:44;3.55;;;2.03;;
773;SDS011;370;48.810;9.150;2023-03-16T05:01:11;4.82;;;1.45;;
773;SDS011;370;48.810;9.150;2023-03-16T05:03:39;5.38;;;2.53;;
773;SDS011;370;48.810;9.150;2023-03-16T05:06:08;2.40;;;2.13;;
773;SDS011;370;48.810;9.150;2023-03-16T05:08:35;4.70;;;2.40;;
773;SDS011;370;48.810;9.150;2023-03-16T05:11:02;1.73;;;0.88;;
773;SDS011;370;48.810;9.150;2023-03-16T05:13:29;8.55;;;2.40;;
773;SDS011;370;48.810;9.150;2023-03-16T05:15:56;10.15;;;1.98;;
773;SDS011;370;48.810;9.150;2023-03-16T05:18:22;8.23;;;2.15;;
773;SDS011;370;48.810;9.150;2023-03-16T05:20:50;5.90;;;1.50;;
773;SDS011;370;48.810;9.150;2023-03-16T05:23:19;3.05;;;1.83;;
773;SDS011;370;48.810;9.150;2023-03-16T05:25:47;6.60;;;2.15;;
773;SDS011;370;48.810;9.150;2023-03-16T05:28:14;2.65;;;1.88;;
773;SDS011;370;48.810;9.150;2023-03-16T05:30:42;7.63;;;2.45;;
773;SDS011;370;48.810;9.150;2023-03-16T05:33:10;5.43;;;2.17;;
773;SDS011;370;48.810;9.150;2023-03-16T05:35:36;7.82;;;2.80;;
773;SDS011;370;48.810;9.150;2023-03-16T05:38:03;6.43;;;2.97;;
773;SDS011;370;48.810;9.150;2023-03-16T05:40:31;4.90;;;2.00;;
773;SDS011;370;48.810;9.150;2023-03-16T05:42:58;11.15;;;2.97;;
773;SDS011;370;48.810;9.150;2023-03-16T05:45:25;5.85;;;3.17;;
773;SDS011;370;48.810;9.150;2023-03-16T05:47:52;13.88;;;4.32;;
773;SDS011;370;48.810;9.150;2023-03-16T05:50:19;6.28;;;4.55;;
773;SDS011;370;48.810;9.150;2023-03-16T05:52:46;10.30;;;2.95;;
773;SDS011;370;48.810;9.150;2023-03-16T05:55:13;8.50;;;3.60;;
773;SDS011;370;48.810;9.150;2023-03-16T05:57:42;10.43;;;2.63;;
773;SDS011;370;48.810;9.150;2023-03-16T06:00:10;2.67;;;2.17;;
773;SDS011;370;48.810;9.150;2023-03-16T06:02:39;9.40;;;3.30;;
773;SDS011;370;48.810;9.150;2023-03-16T06:05:07;7.57;;;3.00;;
773;SDS011;370;48.810;9.150;2023-03-16T06:07:35;5.70;;;3.50;;
773;SDS011;370;48.810;9.150;2023-03-16T06:10:02;4.65;;;2.97;;
773;SDS011;370;48.810;9.150;2023-03-16T06:12:29;7.50;;;2.33;;
773;SDS011;370;48.810;9.150;2023-03-16T06:14:59;4.32;;;2.85;;
773;SDS011;370;48.810;9.150;2023-03-16T06:17:26;9.95;;;3.58;;
773;SDS011;370;48.810;9.150;2023-03-16T06:19:52;6.43;;;3.75;;
773;SDS011;370;48.810;9.150;2023-03-16T06:22:19;4.60;;;2.63;;
773;SDS011;370;48.810;9.150;2023-03-16T06:24:46;2.80;;;2.15;;
773;SDS011;370;48.810;9.150;2023-03-16T06:27:12;4.07;;;2.47;;
773;SDS011;370;48.810;9.150;2023-03-16T06:29:40;3.92;;;2.53;;
773;SDS011;370;48.810;9.150;2023-03-16T06:32:08;11.63;;;3.60;;
773;SDS011;370;48.810;9.150;2023-03-16T06:34:35;8.48;;;3.08;;
773;SDS011;370;48.810;9.150;2023-03-16T06:37:01;12.98;;;4.22;;
773;SDS011;370;48.810;9.150;2023-03-16T06:39:28;7.40;;;3.03;;
773;SDS011;370;48.810;9.150;2023-03-16T06:41:55;4.85;;;3.28;;
773;SDS011;370;48.810;9.150;2023-03-16T06:44:22;5.22;;;2.70;;
773;SDS011;370;48.810;9.150;2023-03-16T06:46:49;2.70;;;2.50;;
773;SDS011;370;48.810;9.150;2023-03-16T06:49:17;12.25;;;3.70;;
773;SDS011;370;48.810;9.150;2023-03-16T06:51:45;8.27;;;3.45;;
773;SDS011;370;48.810;9.150;2023-03-16T06:54:11;6.47;;;3.58;;
773;SDS011;370;48.810;9.150;2023-03-16T06:56:38;13.63;;;5.35;;
773;SDS011;370;48.810;9.150;2023-03-16T06:59:05;10.43;;;4.68;;
773;SDS011;370;48.810;9.150;2023-03-16T07:01:32;15.10;;;5.90;;
773;SDS011;370;48.810;9.150;2023-03-16T07:03:59;25.55;;;5.55;;
773;SDS011;370;48.810;9.150;2023-03-16T07:06:27;10.43;;;4.85;;
773;SDS011;370;48.810;9.150;2023-03-16T07:08:53;13.68;;;6.35;;
773;SDS011;370;48.810;9.150;2023-03-16T07:11:20;13.73;;;6.20;;
773;SDS011;370;48.810;9.150;2023-03-16T07:13:47;16.80;;;5.90;;
773;SDS011;370;48.810;9.150;2023-03-16T07:16:14;16.55;;;6.93;;
773;SDS011;370;48.810;9.150;2023-03-16T07:18:41;59.08;;;18.25;;
773;SDS011;370;48.810;9.150;2023-03-16T07:21:08;18.02;;;6.82;;
773;SDS011;370;48.810;9.150;2023-03-16T07:23:36;15.05;;;6.78;;
773;SDS011;370;48.810;9.150;2023-03-16T07:26:04;14.48;;;5.57;;
773;SDS011;370;48.810;9.150;2023-03-16T07:28:32;12.20;;;4.80;;
773;SDS011;370;48.810;9.150;2023-03-16T07:30:59;16.38;;;6.00;;
773;SDS011;370;48.810;9.150;2023-03-16T07:33:26;13.07;;;5.70;;
773;SDS011;370;48.810;9.150;2023-03-16T07:35:53;19.00;;;6.55;;
773;SDS011;370;48.810;9.150;2023-03-16T07:38:20;16.02;;;5.70;;
773;SDS011;370;48.810;9.150;2023-03-16T07:40:48;15.05;;;6.82;;
773;SDS011;370;48.810;9.150;2023-03-16T07:43:16;17.40;;;6.78;;
773;SDS011;370;48.810;9.150;2023-03-16T07:45:46;16.02;;;7.30;;
773;SDS011;370;48.810;9.150;2023-03-16T07:48:13;14.80;;;5.72;;
773;SDS011;370;48.810;9.150;2023-03-16T07:50:39;15.35;;;7.30;;
773;SDS011;370;48.810;9.150;2023-03-16T07:53:06;14.45;;;6.38;;
773;SDS011;370;48.810;9.150;2023-03-16T07:55:34;16.75;;;6.22;;
773;SDS011;370;48.810;9.150;2023-03-16T07:58:04;10.38;;;5.65;;
773;SDS011;370;48.810;9.150;2023-03-16T08:00:31;12.32;;;6.10;;
773;SDS011;370;48.810;9.150;2023-03-16T08:02:58;10.23;;;5.43;;
773;SDS011;370;48.810;9.150;2023-03-16T08:05:26;12.00;;;6.10;;
773;SDS011;370;48.810;9.150;2023-03-16T08:07:52;10.63;;;5.47;;
773;SDS011;370;48.810;9.150;2023-03-16T08:10:20;10.57;;;5.90;;
773;SDS011;370;48.810;9.150;2023-03-16T08:12:47;20.23;;;6.20;;
773;SDS011;370;48.810;9.150;2023-03-16T08:15:15;12.60;;;6.07;;
773;SDS011;370;48.810;9.150;2023-03-16T08:17:42;11.20;;;5.57;;
773;SDS011;370;48.810;9.150;2023-03-16T08:20:10;8.83;;;5.30;;
773;SDS011;370;48.810;9.150;2023-03-16T08:22:38;14.70;;;5.37;;
773;SDS011;370;48.810;9.150;2023-03-16T08:25:06;9.93;;;6.30;;
773;SDS011;370;48.810;9.150;2023-03-16T08:27:34;12.53;;;5.60;;
773;SDS011;370;48.810;9.150;2023-03-16T08:30:03;8.33;;;4.97;;
773;SDS011;370;48.810;9.150;2023-03-16T08:32:31;10.67;;;4.90;;
773;SDS011;370;48.810;9.150;2023-03-16T08:34:59;7.37;;;4.37;;
773;SDS011;370;48.810;9.150;2023-03-16T08:37:25;8.67;;;4.77;;
773;SDS011;370;48.810;9.150;2023-03-16T08:39:52;12.57;;;4.70;;
773;SDS011;370;48.810;9.150;2023-03-16T08:42:19;10.43;;;4.90;;
773;SDS011;370;48.810;9.150;2023-03-16T08:44:46;8.93;;;4.03;;
773;SDS011;370;48.810;9.150;2023-03-16T08:47:13;8.27;;;4.47;;
773;SDS011;370;48.810;9.150;2023-03-16T08:49:41;9.03;;;4.77;;
773;SDS011;370;48.810;9.150;2023-03-16T08:52:08;5.73;;;3.63;;
773;SDS011;370;48.810;9.150;2023-03-16T08:54:36;7.00;;;3.80;;
773;SDS011;370;48.810;9.150;2023-03-16T08:57:03;5.80;;;3.80;;
773;SDS011;370;48.810;9.150;2023-03-16T08:59:30;7.43;;;4.13;;
773;SDS011;370;48.810;9.150;2023-03-16T09:01:57;8.40;;;3.90;;
773;SDS011;370;48.810;9.150;2023-03-16T09:04:24;6.50;;;3.73;;
773;SDS011;370;48.810;9.150;2023-03-16T09:06:53;6.23;;;3.60;;
773;SDS011;370;48.810;9.150;2023-03-16T09:09:20;4.63;;;3.63;;
773;SDS011;370;48.810;9.150;2023-03-16T09:11:47;3.83;;;3.60;;
773;SDS011;370;48.810;9.150;2023-03-16T09:14:14;10.83;;;3.40;;
773;SDS011;370;48.810;9.150;2023-03-16T09:16:42;8.87;;;3.60;;
773;SDS011;370;48.810;9.150;2023-03-16T09:19:10;3.60;;;3.23;;
773;SDS011;370;48.810;9.150;2023-03-16T09:21:37;5.60;;;3.13;;
773;SDS011;370;48.810;9.150;2023-03-16T09:24:05;5.60;;;2.70;;
773;SDS011;370;48.810;9.150;2023-03-16T09:26:33;5.97;;;3.17;;
773;SDS011;370;48.810;9.150;2023-03-16T09:29:00;3.53;;;3.00;;
773;SDS011;370;48.810;9.150;2023-03-16T09:31:27;3.63;;;2.50;;
773;SDS011;370;48.810;9.150;2023-03-16T09:33:54;5.20;;;2.80;;
773;SDS011;370;48.810;9.150;2023-03-16T09:36:21;8.57;;;2.97;;
773;SDS011;370;48.810;9.150;2023-03-16T09:38:47;7.70;;;3.33;;
773;SDS011;370;48.810;9.150;2023-03-16T09:41:19;6.30;;;2.90;;
773;SDS011;370;48.810;9.150;2023-03-16T09:43:59;6.63;;;2.60;;
773;SDS011;370;48.810;9.150;2023-03-16T09:46:35;4.50;;;3.37;;
773;SDS011;370;48.810;9.150;2023-03-16T09:49:07;5.70;;;3.07;;
773;SDS011;370;48.810;9.150;2023-03-16T09:51:36;5.30;;;3.80;;
773;SDS011;370;48.810;9.150;2023-03-16T09:54:10;5.60;;;3.70;;
773;SDS011;370;48.810;9.150;2023-03-16T09:56:43;5.27;;;3.23;;
773;SDS011;370;48.810;9.150;2023-03-16T09:59:14;4.90;;;3.30;;
773;SDS011;370;48.810;9.150;2023-03-16T10:01:45;4.47;;;3.40;;
773;SDS011;370;48.810;9.150;2023-03-16T10:04:32;4.53;;;3.07;;
773;SDS011;370;48.810;9.150;2023-03-16T10:07:10;6.47;;;3.27;;
773;SDS011;370;48.810;9.150;2023-03-16T10:09:46;3.60;;;2.80;;
773;SDS011;370;48.810;9.150;2023-03-16T10:12:21;8.90;;;3.33;;
773;SDS011;370;48.810;9.150;2023-03-16T10:14:57;3.53;;;2.57;;
773;SDS011;370;48.810;9.150;2023-03-16T10:17:32;3.00;;;2.60;;
773;SDS011;370;48.810;9.150;2023-03-16T10:20:04;5.30;;;3.20;;
773;SDS011;370;48.810;9.150;2023-03-16T10:22:34;4.33;;;3.60;;
773;SDS011;370;48.810;9.150;2023-03-16T10:25:05;15.30;;;3.80;;
773;SDS011;370;48.810;9.150;2023-03-16T10:27:38;7.37;;;3.57;;
773;SDS011;370;48.810;9.150;2023-03-16T10:30:13;4.67;;;2.80;;
773;SDS011;370;48.810;9.150;2023-03-16T10:32:47;5.77;;;3.57;;
773;SDS011;370;48.810;9.150;2023-03-16T10:35:23;4.77;;;3.37;;
773;SDS011;370;48.810;9.150;2023-03-16T10:37:58;5.33;;;3.23;;
773;SDS011;370;48.810;9.150;2023-03-16T10:40:25;4.03;;;3.00;;
773;SDS011;370;48.810;9.150;2023-03-16T10:42:57;8.80;;;3.23;;
773;SDS011;370;48.810;9.150;2023-03-16T10:45:31;5.00;;;2.47;;
773;SDS011;370;48.810;9.150;2023-03-16T10:48:07;3.20;;;2.60;;
773;SDS011;370;48.810;9.150;2023-03-16T10:50:39;4.30;;;2.80;;
773;SDS011;370;48.810;9.150;2023-03-16T10:53:13;3.80;;;2.80;;
773;SDS011;370;48.810;9.150;2023-03-16T10:55:46;3.17;;;2.50;;
773;SDS011;370;48.810;9.150;2023-03-16T10:58:22;5.07;;;3.20;;
773;SDS011;370;48.810;9.150;2023-03-16T11:00:50;3.80;;;2.80;;
773;SDS011;370;48.810;9.150;2023-03-16T11:03:21;4.50;;;2.80;;
773;SDS011;370;48.810;9.150;2023-03-16T11:05:55;6.37;;;2.60;;
773;SDS011;370;48.810;9.150;2023-03-16T11:08:24;3.43;;;2.43;;
773;SDS011;370;48.810;9.150;2023-03-16T11:10:55;3.57;;;1.90;;
773;SDS011;370;48.810;9.150;2023-03-16T11:13:30;6.50;;;2.80;;
773;SDS011;370;48.810;9.150;2023-03-16T11:15:59;2.83;;;2.70;;
773;SDS011;370;48.810;9.150;2023-03-16T11:18:30;3.00;;;2.40;;
773;SDS011;370;48.810;9.150;2023-03-16T11:21:01;4.07;;;2.50;;
773;SDS011;370;48.810;9.150;2023-03-16T11:23:33;4.40;;;2.70;;
773;SDS011;370;48.810;9.150;2023-03-16T11:26:06;2.43;;;2.23;;
773;SDS011;370;48.810;9.150;2023-03-16T11:28:44;2.87;;;2.07;;
773;SDS011;370;48.810;9.150;2023-03-16T11:31:16;4.30;;;2.50;;
773;SDS011;370;48.810;9.150;2023-03-16T11:33:48;2.33;;;2.00;;
773;SDS011;370;48.810;9.150;2023-03-16T11:36:22;5.70;;;3.00;;
773;SDS011;370;48.810;9.150;2023-03-16T11:39:02;3.60;;;3.13;;
773;SDS011;370;48.810;9.150;2023-03-16T11:41:36;5.03;;;2.90;;
773;SDS011;370;48.810;9.150;2023-03-16T11:44:17;7.20;;;2.83;;
773;SDS011;370;48.810;9.150;2023-03-16T11:46:53;4.40;;;3.27;;
773;SDS011;370;48.810;9.150;2023-03-16T11:52:18;10.63;;;3.73;;
773;SDS011;370;48.810;9.150;2023-03-16T11:54:58;4.77;;;3.83;;
773;SDS011;370;48.810;9.150;2023-03-16T11:57:37;2.47;;;2.30;;
773;SDS011;370;48.810;9.150;2023-03-16T12:00:21;6.40;;;3.63;;
773;SDS011;370;48.810;9.150;2023-03-16T12:02:58;4.43;;;2.50;;
773;SDS011;370;48.810;9.150;2023-03-16T12:05:54;3.83;;;2.73;;
773;SDS011;370;48.810;9.150;2023-03-16T12:11:19;3.17;;;2.80;;
773;SDS011;370;48.810;9.150;2023-03-16T12:13:54;10.93;;;2.97;;
773;SDS011;370;48.810;9.150;2023-03-16T12:16:35;3.83;;;2.83;;
773;SDS011;370;48.810;9.150;2023-03-16T12:19:10;3.10;;;2.50;;
773;SDS011;370;48.810;9.150;2023-03-16T12:21:43;6.13;;;2.30;;
773;SDS011;370;48.810;9.150;2023-03-16T12:24:13;4.00;;;2.77;;
773;SDS011;370;48.810;9.150;2023-03-16T12:26:43;4.40;;;2.47;;
773;SDS011;370;48.810;9.150;2023-03-16T12:29:15;2.77;;;2.43;;
773;SDS011;370;48.810;9.150;2023-03-16T12:31:52;2.67;;;2.17;;
773;SDS011;370;48.810;9.150;2023-03-16T12:34:25;4.57;;;2.80;;
773;SDS011;370;48.810;9.150;2023-03-16T12:37:07;3.57;;;2.50;;
773;SDS011;370;48.810;9.150;2023-03-16T12:40:00;2.80;;;2.40;;
773;SDS011;370;48.810;9.150;2023-03-16T12:42:41;2.97;;;2.63;;
773;SDS011;370;48.810;9.150;2023-03-16T12:45:22;2.50;;;2.23;;
773;SDS011;370;48.810;9.150;2023-03-16T12:47:58;2.83;;;2.40;;
773;SDS011;370;48.810;9.150;2023-03-16T12:50:32;4.10;;;2.07;;
773;SDS011;370;48.810;9.150;2023-03-16T12:52:59;3.77;;;2.20;;
773;SDS011;370;48.810;9.150;2023-03-16T12:55:38;3.57;;;2.17;;
773;SDS011;370;48.810;9.150;2023-03-16T12:58:09;4.80;;;2.10;;
773;SDS011;370;48.810;9.150;2023-03-16T13:00:37;3.00;;;2.40;;
773;SDS011;370;48.810;9.150;2023-03-16T13:03:12;2.30;;;2.00;;
773;SDS011;370;48.810;9.150;2023-03-16T13:05:43;4.93;;;2.33;;
773;SDS011;370;48.810;9.150;2023-03-16T13:08:12;1.93;;;1.83;;
773;SDS011;370;48.810;9.150;2023-03-16T13:10:40;6.93;;;2.00;;
773;SDS011;370;48.810;9.150;2023-03-16T13:13:26;5.40;;;2.50;;
773;SDS011;370;48.810;9.150;2023-03-16T13:16:00;3.20;;;2.40;;
773;SDS011;370;48.810;9.150;2023-03-16T13:18:36;2.57;;;1.97;;
773;SDS011;370;48.810;9.150;2023-03-16T13:21:16;3.20;;;2.40;;
773;SDS011;370;48.810;9.150;2023-03-16T13:23:54;3.90;;;2.70;;
773;SDS011;370;48.810;9.150;2023-03-16T13:29:22;3.57;;;2.47;;
773;SDS011;370;48.810;9.150;2023-03-16T13:31:51;7.97;;;2.80;;
773;SDS011;370;48.810;9.150;2023-03-16T13:34:21;4.30;;;2.00;;
773;SDS011;370;48.810;9.150;2023-03-16T13:36:52;5.27;;;2.40;;
773;SDS011;370;48.810;9.150;2023-03-16T13:39:22;5.43;;;2.40;;
773;SDS011;370;48.810;9.150;2023-03-16T13:41:55;3.97;;;1.77;;
773;SDS011;370;48.810;9.150;2023-03-16T13:44:24;6.13;;;2.30;;
773;SDS011;370;48.810;9.150;2023-03-16T13:46:52;3.20;;;2.17;;
773;SDS011;370;48.810;9.150;2023-03-16T13:49:19;4.40;;;2.17;;
773;SDS011;370;48.810;9.150;2023-03-16T13:51:47;3.33;;;2.10;;
773;SDS011;370;48.810;9.150;2023-03-16T13:54:24;2.13;;;1.90;;
773;SDS011;370;48.810;9.150;2023-03-16T13:56:54;2.80;;;2.50;;
773;SDS011;370;48.810;9.150;2023-03-16T13:59:23;3.67;;;1.93;;
773;SDS011;370;48.810;9.150;2023-03-16T14:01:53;2.47;;;1.80;;
773;SDS011;370;48.810;9.150;2023-03-16T14:04:25;3.13;;;2.07;;
773;SDS011;370;48.810;9.150;2023-03-16T14:06:54;4.10;;;1.93;;
773;SDS011;370;48.810;9.150;2023-03-16T14:09:23;3.17;;;2.40;;
773;SDS011;370;48.810;9.150;2023-03-16T14:11:52;3.30;;;1.80;;
773;SDS011;370;48.810;9.150;2023-03-16T14:14:22;4.27;;;2.20;;
773;SDS011;370;48.810;9.150;2023-03-16T14:16:51;14.00;;;2.50;;
773;SDS011;370;48.810;9.150;2023-03-16T14:19:20;2.83;;;2.00;;
773;SDS011;370;48.810;9.150;2023-03-16T14:21:49;2.40;;;2.13;;
773;SDS011;370;48.810;9.150;2023-03-16T14:24:19;4.63;;;2.30;;
773;SDS011;370;48.810;9.150;2023-03-16T14:26:54;5.53;;;2.37;;
773;SDS011;370;48.810;9.150;2023-03-16T14:29:24;2.10;;;1.90;;
773;SDS011;370;48.810;9.150;2023-03-16T14:31:55;7.50;;;1.77;;
773;SDS011;370;48.810;9.150;2023-03-16T14:34:27;3.57;;;2.20;;
773;SDS011;370;48.810;9.150;2023-03-16T14:37:08;4.77;;;2.20;;
773;SDS011;370;48.810;9.150;2023-03-16T14:39:36;4.63;;;2.83;;
773;SDS011;370;48.810;9.150;2023-03-16T14:42:04;4.20;;;1.70;;
773;SDS011;370;48.810;9.150;2023-03-16T14:44:38;3.00;;;1.90;;
773;SDS011;370;48.810;9.150;2023-03-16T14:47:06;2.80;;;2.30;;
773;SDS011;370;48.810;9.150;2023-03-16T14:49:33;7.23;;;2.27;;
773;SDS011;370;48.810;9.150;2023-03-16T14:52:03;1.87;;;1.83;;
773;SDS011;370;48.810;9.150;2023-03-16T14:54:36;8.87;;;2.63;;
773;SDS011;370;48.810;9.150;2023-03-16T14:57:03;5.40;;;2.20;;
773;SDS011;370;48.810;9.150;2023-03-16T14:59:30;2.90;;;2.17;;
773;SDS011;370;48.810;9.150;2023-03-16T15:01:57;2.03;;;1.77;;
773;SDS011;370;48.810;9.150;2023-03-16T15:04:26;3.07;;;1.87;;
773;SDS011;370;48.810;9.150;2023-03-16T15:06:56;2.57;;;2.10;;
773;SDS011;370;48.810;9.150;2023-03-16T15:09:27;2.80;;;1.73;;
773;SDS011;370;48.810;9.150;2023-03-16T15:11:58;3.00;;;1.70;;
773;SDS011;370;48.810;9.150;2023-03-16T15:14:25;7.53;;;1.60;;
773;SDS011;370;48.810;9.150;2023-03-16T15:17:09;3.00;;;1.87;;
773;SDS011;370;48.810;9.150;2023-03-16T15:19:36;1.33;;;1.23;;
773;SDS011;370;48.810;9.150;2023-03-16T15:22:03;1.53;;;1.37;;
773;SDS011;370;48.810;9.150;2023-03-16T15:24:32;1.63;;;1.57;;
773;SDS011;370;48.810;9.150;2023-03-16T15:26:59;4.60;;;2.10;;
773;SDS011;370;48.810;9.150;2023-03-16T15:29:26;2.43;;;1.93;;
773;SDS011;370;48.810;9.150;2023-03-16T15:31:52;3.25;;;1.60;;
773;SDS011;370;48.810;9.150;2023-03-16T15:34:19;3.60;;;1.85;;
773;SDS011;370;48.810;9.150;2023-03-16T15:36:46;2.20;;;1.80;;
773;SDS011;370;48.810;9.150;2023-03-16T15:39:15;1.85;;;1.50;;
773;SDS011;370;48.810;9.150;2023-03-16T15:41:49;3.10;;;1.67;;
773;SDS011;370;48.810;9.150;2023-03-16T15:44:15;2.45;;;1.80;;
773;SDS011;370;48.810;9.150;2023-03-16T15:46:42;3.40;;;1.85;;
773;SDS011;370;48.810;9.150;2023-03-16T15:49:09;4.03;;;1.65;;
773;SDS011;370;48.810;9.150;2023-03-16T15:51:36;1.65;;;1.40;;
773;SDS011;370;48.810;9.150;2023-03-16T15:54:03;5.55;;;2.00;;
773;SDS011;370;48.810;9.150;2023-03-16T15:56:33;2.35;;;1.40;;
773;SDS011;370;48.810;9.150;2023-03-16T15:59:03;4.00;;;1.90;;
773;SDS011;370;48.810;9.150;2023-03-16T16:01:33;3.42;;;1.98;;
773;SDS011;370;48.810;9.150;2023-03-16T16:04:11;3.17;;;1.58;;
773;SDS011;370;48.810;9.150;2023-03-16T16:06:39;2.05;;;1.60;;
773;SDS011;370;48.810;9.150;2023-03-16T16:09:07;1.40;;;1.30;;